sensor_id;sensor_type;location;lat;lon;timestamp;P1;durP1;ratioP1;P2;durP2;ratioP2
66371;SDS011;53168;51.146;17.120;2024-03-08T00:01:45;47.54;;;46.15;;
66371;SDS011;53168;51.146;17.120;2024-03-08T00:04:20;48.35;;;46.34;;
66371;SDS011;53168;51.146;17.120;2024-03-08T00:06:54;48.13;;;46.37;;
66371;SDS011;53168;51.146;17.120;2024-03-08T00:09:30;47.04;;;45.68;;
66371;SDS011;53168;51.146;17.120;2024-03-08T00:12:05;47.58;;;45.46;;
66371;SDS011;53168;51.146;17.120;2024-03-08T00:14:40;47.41;;;45.37;;
66371;SDS011;53168;51.146;17.120;2024-03-08T00:17:15;47.18;;;45.74;;
66371;SDS011;53168;51.146;17.120;2024-03-08T00:19:49;47.17;;;45.87;;
66371;SDS011;53168;51.146;17.120;2024-03-08T00:22:24;48.02;;;46.03;;
66371;SDS011;53168;51.146;17.120;2024-03-08T00:25:02;46.50;;;45.03;;
66371;SDS011;53168;51.146;17.120;2024-03-08T00:27:40;48.63;;;46.85;;
66371;SDS011;53168;51.146;17.120;2024-03-08T00:30:15;48.04;;;46.69;;
66371;SDS011;53168;51.146;17.120;2024-03-08T00:32:50;49.82;;;47.78;;
66371;SDS011;53168;51.146;17.120;2024-03-08T00:35:25;51.27;;;49.28;;
66371;SDS011;53168;51.146;17.120;2024-03-08T00:38:00;52.01;;;49.38;;
66371;SDS011;53168;51.146;17.120;2024-03-08T00:40:35;52.13;;;50.02;;
66371;SDS011;53168;51.146;17.120;2024-03-08T00:43:10;51.69;;;49.23;;
66371;SDS011;53168;51.146;17.120;2024-03-08T00:45:46;49.66;;;47.77;;
66371;SDS011;53168;51.146;17.120;2024-03-08T00:48:20;51.07;;;48.89;;
66371;SDS011;53168;51.146;17.120;2024-03-08T00:50:55;51.18;;;49.07;;
66371;SDS011;53168;51.146;17.120;2024-03-08T00:53:31;49.16;;;47.90;;
66371;SDS011;53168;51.146;17.120;2024-03-08T00:56:07;48.53;;;47.21;;
66371;SDS011;53168;51.146;17.120;2024-03-08T00:58:42;49.67;;;48.24;;
66371;SDS011;53168;51.146;17.120;2024-03-08T01:01:19;49.68;;;48.14;;
66371;SDS011;53168;51.146;17.120;2024-03-08T01:03:55;50.79;;;48.84;;
66371;SDS011;53168;51.146;17.120;2024-03-08T01:06:32;50.93;;;49.32;;
66371;SDS011;53168;51.146;17.120;2024-03-08T01:09:08;50.56;;;48.69;;
66371;SDS011;53168;51.146;17.120;2024-03-08T01:11:42;51.29;;;49.24;;
66371;SDS011;53168;51.146;17.120;2024-03-08T01:14:17;51.71;;;49.65;;
66371;SDS011;53168;51.146;17.120;2024-03-08T01:16:53;49.71;;;48.00;;
66371;SDS011;53168;51.146;17.120;2024-03-08T01:19:28;49.88;;;48.22;;
66371;SDS011;53168;51.146;17.120;2024-03-08T01:22:03;52.41;;;50.76;;
66371;SDS011;53168;51.146;17.120;2024-03-08T01:24:40;52.75;;;50.66;;
66371;SDS011;53168;51.146;17.120;2024-03-08T01:27:14;53.02;;;51.27;;
66371;SDS011;53168;51.146;17.120;2024-03-08T01:29:49;52.84;;;50.76;;
66371;SDS011;53168;51.146;17.120;2024-03-08T01:32:23;52.85;;;50.91;;
66371;SDS011;53168;51.146;17.120;2024-03-08T01:34:58;53.29;;;51.35;;
66371;SDS011;53168;51.146;17.120;2024-03-08T01:37:38;54.31;;;52.33;;
66371;SDS011;53168;51.146;17.120;2024-03-08T01:40:13;53.15;;;51.82;;
66371;SDS011;53168;51.146;17.120;2024-03-08T01:42:48;55.01;;;52.99;;
66371;SDS011;53168;51.146;17.120;2024-03-08T01:45:23;53.59;;;51.84;;
66371;SDS011;53168;51.146;17.120;2024-03-08T01:47:58;54.53;;;52.18;;
66371;SDS011;53168;51.146;17.120;2024-03-08T01:50:32;57.06;;;54.49;;
66371;SDS011;53168;51.146;17.120;2024-03-08T01:53:09;56.16;;;54.22;;
66371;SDS011;53168;51.146;17.120;2024-03-08T01:55:48;56.44;;;54.81;;
66371;SDS011;53168;51.146;17.120;2024-03-08T01:58:30;61.10;;;59.33;;
66371;SDS011;53168;51.146;17.120;2024-03-08T02:01:10;62.19;;;59.80;;
66371;SDS011;53168;51.146;17.120;2024-03-08T02:03:49;60.52;;;58.38;;
66371;SDS011;53168;51.146;17.120;2024-03-08T02:06:23;60.71;;;58.59;;
66371;SDS011;53168;51.146;17.120;2024-03-08T02:08:57;58.50;;;56.28;;
66371;SDS011;53168;51.146;17.120;2024-03-08T02:11:36;57.46;;;55.21;;
66371;SDS011;53168;51.146;17.120;2024-03-08T02:14:13;57.43;;;55.44;;
66371;SDS011;53168;51.146;17.120;2024-03-08T02:16:48;57.10;;;55.15;;
66371;SDS011;53168;51.146;17.120;2024-03-08T02:19:23;56.12;;;54.43;;
66371;SDS011;53168;51.146;17.120;2024-03-08T02:21:58;52.52;;;50.98;;
66371;SDS011;53168;51.146;17.120;2024-03-08T02:24:36;53.77;;;51.41;;
66371;SDS011;53168;51.146;17.120;2024-03-08T02:27:10;49.99;;;48.02;;
66371;SDS011;53168;51.146;17.120;2024-03-08T02:29:46;50.87;;;48.94;;
66371;SDS011;53168;51.146;17.120;2024-03-08T02:32:25;49.41;;;47.66;;
66371;SDS011;53168;51.146;17.120;2024-03-08T02:35:03;46.92;;;45.36;;
66371;SDS011;53168;51.146;17.120;2024-03-08T02:37:39;44.49;;;42.82;;
66371;SDS011;53168;51.146;17.120;2024-03-08T02:40:17;45.67;;;44.32;;
66371;SDS011;53168;51.146;17.120;2024-03-08T02:42:52;44.35;;;42.98;;
66371;SDS011;53168;51.146;17.120;2024-03-08T02:45:26;43.93;;;42.10;;
66371;SDS011;53168;51.146;17.120;2024-03-08T02:48:00;44.02;;;41.97;;
66371;SDS011;53168;51.146;17.120;2024-03-08T02:50:42;44.88;;;43.06;;
66371;SDS011;53168;51.146;17.120;2024-03-08T02:53:17;46.43;;;44.92;;
66371;SDS011;53168;51.146;17.120;2024-03-08T02:55:54;47.41;;;45.44;;
66371;SDS011;53168;51.146;17.120;2024-03-08T02:58:28;47.27;;;45.34;;
66371;SDS011;53168;51.146;17.120;2024-03-08T03:01:03;46.52;;;44.49;;
66371;SDS011;53168;51.146;17.120;2024-03-08T03:03:42;47.46;;;45.30;;
66371;SDS011;53168;51.146;17.120;2024-03-08T03:06:17;45.00;;;43.49;;
66371;SDS011;53168;51.146;17.120;2024-03-08T03:08:52;45.41;;;43.90;;
66371;SDS011;53168;51.146;17.120;2024-03-08T03:11:27;44.91;;;42.92;;
66371;SDS011;53168;51.146;17.120;2024-03-08T03:14:01;44.97;;;43.69;;
66371;SDS011;53168;51.146;17.120;2024-03-08T03:16:36;45.51;;;43.79;;
66371;SDS011;53168;51.146;17.120;2024-03-08T03:19:14;45.73;;;43.92;;
66371;SDS011;53168;51.146;17.120;2024-03-08T03:21:52;45.04;;;43.62;;
66371;SDS011;53168;51.146;17.120;2024-03-08T03:24:31;44.77;;;43.27;;
66371;SDS011;53168;51.146;17.120;2024-03-08T03:27:10;44.76;;;43.07;;
66371;SDS011;53168;51.146;17.120;2024-03-08T03:29:46;44.80;;;42.75;;
66371;SDS011;53168;51.146;17.120;2024-03-08T03:32:21;45.41;;;43.55;;
66371;SDS011;53168;51.146;17.120;2024-03-08T03:34:56;46.03;;;44.66;;
66371;SDS011;53168;51.146;17.120;2024-03-08T03:37:35;44.85;;;43.61;;
66371;SDS011;53168;51.146;17.120;2024-03-08T03:40:13;47.05;;;45.12;;
66371;SDS011;53168;51.146;17.120;2024-03-08T03:42:49;46.29;;;44.63;;
66371;SDS011;53168;51.146;17.120;2024-03-08T03:45:24;46.81;;;44.97;;
66371;SDS011;53168;51.146;17.120;2024-03-08T03:47:59;45.92;;;44.52;;
66371;SDS011;53168;51.146;17.120;2024-03-08T03:50:41;46.52;;;44.87;;
66371;SDS011;53168;51.146;17.120;2024-03-08T03:53:15;46.55;;;45.19;;
66371;SDS011;53168;51.146;17.120;2024-03-08T03:55:50;48.80;;;46.43;;
66371;SDS011;53168;51.146;17.120;2024-03-08T03:58:24;48.54;;;46.92;;
66371;SDS011;53168;51.146;17.120;2024-03-08T04:00:58;48.84;;;47.11;;
66371;SDS011;53168;51.146;17.120;2024-03-08T04:03:35;49.14;;;47.44;;
66371;SDS011;53168;51.146;17.120;2024-03-08T04:06:13;48.25;;;46.54;;
66371;SDS011;53168;51.146;17.120;2024-03-08T04:08:48;47.48;;;46.04;;
66371;SDS011;53168;51.146;17.120;2024-03-08T04:11:22;47.16;;;45.62;;
66371;SDS011;53168;51.146;17.120;2024-03-08T04:13:58;48.88;;;46.84;;
66371;SDS011;53168;51.146;17.120;2024-03-08T04:16:32;47.96;;;46.35;;
66371;SDS011;53168;51.146;17.120;2024-03-08T04:19:07;50.25;;;48.56;;
66371;SDS011;53168;51.146;17.120;2024-03-08T04:21:47;50.13;;;48.59;;
66371;SDS011;53168;51.146;17.120;2024-03-08T04:24:21;50.06;;;48.40;;
66371;SDS011;53168;51.146;17.120;2024-03-08T04:26:56;52.01;;;49.89;;
66371;SDS011;53168;51.146;17.120;2024-03-08T04:29:31;50.39;;;48.39;;
66371;SDS011;53168;51.146;17.120;2024-03-08T04:32:06;50.16;;;48.17;;
66371;SDS011;53168;51.146;17.120;2024-03-08T04:34:43;48.42;;;46.69;;
66371;SDS011;53168;51.146;17.120;2024-03-08T04:37:19;50.20;;;48.40;;
66371;SDS011;53168;51.146;17.120;2024-03-08T04:39:54;49.63;;;47.77;;
66371;SDS011;53168;51.146;17.120;2024-03-08T04:42:30;50.57;;;48.64;;
66371;SDS011;53168;51.146;17.120;2024-03-08T04:45:08;48.49;;;47.15;;
66371;SDS011;53168;51.146;17.120;2024-03-08T04:47:45;50.48;;;47.82;;
66371;SDS011;53168;51.146;17.120;2024-03-08T04:50:22;52.45;;;49.55;;
66371;SDS011;53168;51.146;17.120;2024-03-08T04:52:59;51.17;;;49.02;;
66371;SDS011;53168;51.146;17.120;2024-03-08T04:55:33;50.17;;;48.26;;
66371;SDS011;53168;51.146;17.120;2024-03-08T04:58:08;51.82;;;49.32;;
66371;SDS011;53168;51.146;17.120;2024-03-08T05:00:43;50.96;;;49.30;;
66371;SDS011;53168;51.146;17.120;2024-03-08T05:03:21;50.93;;;49.04;;
66371;SDS011;53168;51.146;17.120;2024-03-08T05:05:56;51.67;;;49.36;;
66371;SDS011;53168;51.146;17.120;2024-03-08T05:08:31;51.02;;;48.84;;
66371;SDS011;53168;51.146;17.120;2024-03-08T05:11:06;51.64;;;49.31;;
66371;SDS011;53168;51.146;17.120;2024-03-08T05:13:44;48.24;;;46.54;;
66371;SDS011;53168;51.146;17.120;2024-03-08T05:16:19;52.48;;;50.14;;
66371;SDS011;53168;51.146;17.120;2024-03-08T05:18:54;52.91;;;49.78;;
66371;SDS011;53168;51.146;17.120;2024-03-08T05:21:30;51.27;;;49.34;;
66371;SDS011;53168;51.146;17.120;2024-03-08T05:24:05;53.05;;;50.61;;
66371;SDS011;53168;51.146;17.120;2024-03-08T05:26:41;53.31;;;50.65;;
66371;SDS011;53168;51.146;17.120;2024-03-08T05:29:19;51.82;;;49.65;;
66371;SDS011;53168;51.146;17.120;2024-03-08T05:31:54;50.06;;;47.96;;
66371;SDS011;53168;51.146;17.120;2024-03-08T05:34:29;51.57;;;49.47;;
66371;SDS011;53168;51.146;17.120;2024-03-08T05:37:04;50.94;;;49.02;;
66371;SDS011;53168;51.146;17.120;2024-03-08T05:39:39;50.03;;;48.20;;
66371;SDS011;53168;51.146;17.120;2024-03-08T05:42:14;51.84;;;49.76;;
66371;SDS011;53168;51.146;17.120;2024-03-08T05:44:50;51.29;;;49.51;;
66371;SDS011;53168;51.146;17.120;2024-03-08T05:47:26;52.95;;;51.09;;
66371;SDS011;53168;51.146;17.120;2024-03-08T05:50:03;52.71;;;50.26;;
66371;SDS011;53168;51.146;17.120;2024-03-08T05:52:40;53.26;;;51.12;;
66371;SDS011;53168;51.146;17.120;2024-03-08T05:55:17;51.72;;;49.82;;
66371;SDS011;53168;51.146;17.120;2024-03-08T05:57:54;53.48;;;51.36;;
66371;SDS011;53168;51.146;17.120;2024-03-08T06:00:30;53.32;;;50.92;;
66371;SDS011;53168;51.146;17.120;2024-03-08T06:03:05;50.56;;;48.25;;
66371;SDS011;53168;51.146;17.120;2024-03-08T06:05:47;53.13;;;50.88;;
66371;SDS011;53168;51.146;17.120;2024-03-08T06:08:23;52.16;;;49.87;;
66371;SDS011;53168;51.146;17.120;2024-03-08T06:11:00;49.40;;;47.34;;
66371;SDS011;53168;51.146;17.120;2024-03-08T06:13:36;50.77;;;48.80;;
66371;SDS011;53168;51.146;17.120;2024-03-08T06:16:12;48.64;;;46.58;;
66371;SDS011;53168;51.146;17.120;2024-03-08T06:18:49;48.55;;;46.14;;
66371;SDS011;53168;51.146;17.120;2024-03-08T06:21:25;46.54;;;44.39;;
66371;SDS011;53168;51.146;17.120;2024-03-08T06:23:59;44.13;;;42.64;;
66371;SDS011;53168;51.146;17.120;2024-03-08T06:26:37;48.59;;;46.74;;
66371;SDS011;53168;51.146;17.120;2024-03-08T06:29:14;51.01;;;49.10;;
66371;SDS011;53168;51.146;17.120;2024-03-08T06:31:50;50.23;;;47.46;;
66371;SDS011;53168;51.146;17.120;2024-03-08T06:34:26;49.87;;;47.48;;
66371;SDS011;53168;51.146;17.120;2024-03-08T06:37:04;47.71;;;45.94;;
66371;SDS011;53168;51.146;17.120;2024-03-08T06:39:39;49.18;;;47.72;;
66371;SDS011;53168;51.146;17.120;2024-03-08T06:42:16;50.00;;;48.25;;
66371;SDS011;53168;51.146;17.120;2024-03-08T06:44:52;48.10;;;45.83;;
66371;SDS011;53168;51.146;17.120;2024-03-08T06:47:34;47.18;;;44.67;;
66371;SDS011;53168;51.146;17.120;2024-03-08T06:50:13;49.61;;;47.22;;
66371;SDS011;53168;51.146;17.120;2024-03-08T06:52:52;46.19;;;43.95;;
66371;SDS011;53168;51.146;17.120;2024-03-08T06:55:31;46.34;;;43.67;;
66371;SDS011;53168;51.146;17.120;2024-03-08T06:58:07;44.49;;;42.48;;
66371;SDS011;53168;51.146;17.120;2024-03-08T07:00:42;45.39;;;43.67;;
66371;SDS011;53168;51.146;17.120;2024-03-08T07:03:27;45.92;;;43.87;;
66371;SDS011;53168;51.146;17.120;2024-03-08T07:06:03;45.58;;;43.81;;
66371;SDS011;53168;51.146;17.120;2024-03-08T07:08:38;46.75;;;45.20;;
66371;SDS011;53168;51.146;17.120;2024-03-08T07:11:15;44.79;;;43.07;;
66371;SDS011;53168;51.146;17.120;2024-03-08T07:13:50;46.18;;;44.29;;
66371;SDS011;53168;51.146;17.120;2024-03-08T07:16:26;44.65;;;42.95;;
66371;SDS011;53168;51.146;17.120;2024-03-08T07:19:00;46.57;;;44.35;;
66371;SDS011;53168;51.146;17.120;2024-03-08T07:21:35;44.35;;;42.20;;
66371;SDS011;53168;51.146;17.120;2024-03-08T07:24:09;43.16;;;41.55;;
66371;SDS011;53168;51.146;17.120;2024-03-08T07:27:04;43.25;;;41.51;;
66371;SDS011;53168;51.146;17.120;2024-03-08T07:29:40;43.29;;;41.47;;
66371;SDS011;53168;51.146;17.120;2024-03-08T07:32:14;41.84;;;39.95;;
66371;SDS011;53168;51.146;17.120;2024-03-08T07:34:54;44.68;;;42.11;;
66371;SDS011;53168;51.146;17.120;2024-03-08T07:37:28;42.98;;;41.26;;
66371;SDS011;53168;51.146;17.120;2024-03-08T07:40:04;42.86;;;41.02;;
66371;SDS011;53168;51.146;17.120;2024-03-08T07:42:43;39.29;;;37.61;;
66371;SDS011;53168;51.146;17.120;2024-03-08T07:45:18;38.63;;;37.16;;
66371;SDS011;53168;51.146;17.120;2024-03-08T07:47:53;38.74;;;37.53;;
66371;SDS011;53168;51.146;17.120;2024-03-08T07:50:28;31.84;;;30.79;;
66371;SDS011;53168;51.146;17.120;2024-03-08T07:53:03;36.09;;;34.66;;
66371;SDS011;53168;51.146;17.120;2024-03-08T07:55:37;37.75;;;36.36;;
66371;SDS011;53168;51.146;17.120;2024-03-08T07:58:14;41.71;;;40.05;;
66371;SDS011;53168;51.146;17.120;2024-03-08T08:00:49;39.09;;;37.85;;
66371;SDS011;53168;51.146;17.120;2024-03-08T08:03:24;33.87;;;32.91;;
66371;SDS011;53168;51.146;17.120;2024-03-08T08:05:58;37.58;;;36.17;;
66371;SDS011;53168;51.146;17.120;2024-03-08T08:08:33;41.79;;;39.84;;
66371;SDS011;53168;51.146;17.120;2024-03-08T08:11:07;38.65;;;37.41;;
66371;SDS011;53168;51.146;17.120;2024-03-08T08:13:42;38.88;;;37.21;;
66371;SDS011;53168;51.146;17.120;2024-03-08T08:16:17;38.54;;;36.79;;
66371;SDS011;53168;51.146;17.120;2024-03-08T08:18:56;35.40;;;33.92;;
66371;SDS011;53168;51.146;17.120;2024-03-08T08:21:31;34.75;;;33.84;;
66371;SDS011;53168;51.146;17.120;2024-03-08T08:24:06;39.26;;;37.99;;
66371;SDS011;53168;51.146;17.120;2024-03-08T08:26:41;38.20;;;36.86;;
66371;SDS011;53168;51.146;17.120;2024-03-08T08:29:16;40.10;;;38.67;;
66371;SDS011;53168;51.146;17.120;2024-03-08T08:31:50;38.77;;;37.31;;
66371;SDS011;53168;51.146;17.120;2024-03-08T08:34:25;35.08;;;34.16;;
66371;SDS011;53168;51.146;17.120;2024-03-08T08:37:02;36.66;;;35.32;;
66371;SDS011;53168;51.146;17.120;2024-03-08T08:39:39;37.61;;;36.33;;
66371;SDS011;53168;51.146;17.120;2024-03-08T08:42:13;35.39;;;34.25;;
66371;SDS011;53168;51.146;17.120;2024-03-08T08:44:47;34.42;;;33.24;;
66371;SDS011;53168;51.146;17.120;2024-03-08T08:47:24;38.12;;;36.88;;
66371;SDS011;53168;51.146;17.120;2024-03-08T08:49:59;36.08;;;34.47;;
66371;SDS011;53168;51.146;17.120;2024-03-08T08:52:34;32.56;;;31.28;;
66371;SDS011;53168;51.146;17.120;2024-03-08T08:55:09;35.67;;;34.62;;
66371;SDS011;53168;51.146;17.120;2024-03-08T08:57:45;33.99;;;33.17;;
66371;SDS011;53168;51.146;17.120;2024-03-08T09:00:20;37.86;;;36.44;;
66371;SDS011;53168;51.146;17.120;2024-03-08T09:02:58;36.85;;;35.15;;
66371;SDS011;53168;51.146;17.120;2024-03-08T09:05:33;33.43;;;32.61;;
66371;SDS011;53168;51.146;17.120;2024-03-08T09:08:08;33.45;;;32.34;;
66371;SDS011;53168;51.146;17.120;2024-03-08T09:10:43;38.28;;;36.71;;
66371;SDS011;53168;51.146;17.120;2024-03-08T09:13:20;33.28;;;31.79;;
66371;SDS011;53168;51.146;17.120;2024-03-08T09:16:01;34.76;;;33.25;;
66371;SDS011;53168;51.146;17.120;2024-03-08T09:18:36;36.87;;;35.86;;
66371;SDS011;53168;51.146;17.120;2024-03-08T09:21:11;34.75;;;33.59;;
66371;SDS011;53168;51.146;17.120;2024-03-08T09:23:46;35.42;;;34.27;;
66371;SDS011;53168;51.146;17.120;2024-03-08T09:26:20;34.96;;;33.78;;
66371;SDS011;53168;51.146;17.120;2024-03-08T09:28:59;32.51;;;31.66;;
66371;SDS011;53168;51.146;17.120;2024-03-08T09:31:33;31.47;;;30.51;;
66371;SDS011;53168;51.146;17.120;2024-03-08T09:34:07;29.41;;;28.87;;
66371;SDS011;53168;51.146;17.120;2024-03-08T09:36:51;30.36;;;29.58;;
66371;SDS011;53168;51.146;17.120;2024-03-08T09:39:28;30.39;;;29.73;;
66371;SDS011;53168;51.146;17.120;2024-03-08T09:42:03;28.39;;;27.73;;
66371;SDS011;53168;51.146;17.120;2024-03-08T09:44:38;28.95;;;28.48;;
66371;SDS011;53168;51.146;17.120;2024-03-08T09:47:16;28.54;;;27.78;;
66371;SDS011;53168;51.146;17.120;2024-03-08T09:49:58;28.58;;;27.86;;
66371;SDS011;53168;51.146;17.120;2024-03-08T09:52:33;31.76;;;30.87;;
66371;SDS011;53168;51.146;17.120;2024-03-08T09:55:09;31.00;;;30.04;;
66371;SDS011;53168;51.146;17.120;2024-03-08T09:57:47;30.41;;;29.68;;
66371;SDS011;53168;51.146;17.120;2024-03-08T10:00:41;27.96;;;27.25;;
66371;SDS011;53168;51.146;17.120;2024-03-08T10:03:15;28.23;;;27.65;;
66371;SDS011;53168;51.146;17.120;2024-03-08T10:05:52;25.81;;;25.24;;
66371;SDS011;53168;51.146;17.120;2024-03-08T10:08:30;26.52;;;26.12;;
66371;SDS011;53168;51.146;17.120;2024-03-08T10:11:04;29.09;;;27.89;;
66371;SDS011;53168;51.146;17.120;2024-03-08T10:13:41;23.51;;;22.80;;
66371;SDS011;53168;51.146;17.120;2024-03-08T10:16:18;26.62;;;25.94;;
66371;SDS011;53168;51.146;17.120;2024-03-08T10:18:57;24.32;;;23.71;;
66371;SDS011;53168;51.146;17.120;2024-03-08T10:21:34;24.29;;;23.74;;
66371;SDS011;53168;51.146;17.120;2024-03-08T10:24:21;25.19;;;24.57;;
66371;SDS011;53168;51.146;17.120;2024-03-08T10:26:59;23.32;;;22.86;;
66371;SDS011;53168;51.146;17.120;2024-03-08T10:29:35;26.00;;;25.56;;
66371;SDS011;53168;51.146;17.120;2024-03-08T10:32:13;26.69;;;26.07;;
66371;SDS011;53168;51.146;17.120;2024-03-08T10:34:47;27.07;;;26.37;;
66371;SDS011;53168;51.146;17.120;2024-03-08T10:37:22;24.50;;;24.15;;
66371;SDS011;53168;51.146;17.120;2024-03-08T10:40:03;28.07;;;27.47;;
66371;SDS011;53168;51.146;17.120;2024-03-08T10:42:51;28.73;;;27.80;;
66371;SDS011;53168;51.146;17.120;2024-03-08T10:45:31;24.61;;;23.99;;
66371;SDS011;53168;51.146;17.120;2024-03-08T10:48:17;24.48;;;24.06;;
66371;SDS011;53168;51.146;17.120;2024-03-08T10:51:08;24.52;;;24.17;;
66371;SDS011;53168;51.146;17.120;2024-03-08T10:53:47;22.54;;;22.29;;
66371;SDS011;53168;51.146;17.120;2024-03-08T10:56:23;22.66;;;22.19;;
66371;SDS011;53168;51.146;17.120;2024-03-08T10:58:58;23.10;;;22.88;;
66371;SDS011;53168;51.146;17.120;2024-03-08T11:01:34;22.03;;;21.66;;
66371;SDS011;53168;51.146;17.120;2024-03-08T11:04:09;22.55;;;22.10;;
66371;SDS011;53168;51.146;17.120;2024-03-08T11:06:45;23.06;;;22.66;;
66371;SDS011;53168;51.146;17.120;2024-03-08T11:09:30;23.39;;;23.01;;
66371;SDS011;53168;51.146;17.120;2024-03-08T11:12:21;22.50;;;21.98;;
66371;SDS011;53168;51.146;17.120;2024-03-08T11:15:03;22.08;;;21.62;;
66371;SDS011;53168;51.146;17.120;2024-03-08T11:17:48;24.02;;;23.40;;
66371;SDS011;53168;51.146;17.120;2024-03-08T11:20:25;23.04;;;22.62;;
66371;SDS011;53168;51.146;17.120;2024-03-08T11:23:03;22.66;;;22.21;;
66371;SDS011;53168;51.146;17.120;2024-03-08T11:25:40;22.69;;;22.38;;
66371;SDS011;53168;51.146;17.120;2024-03-08T11:28:17;23.67;;;23.28;;
66371;SDS011;53168;51.146;17.120;2024-03-08T11:33:58;21.82;;;21.64;;
66371;SDS011;53168;51.146;17.120;2024-03-08T11:36:35;22.82;;;22.61;;
66371;SDS011;53168;51.146;17.120;2024-03-08T11:39:13;22.52;;;22.34;;
66371;SDS011;53168;51.146;17.120;2024-03-08T11:41:48;22.60;;;22.31;;
66371;SDS011;53168;51.146;17.120;2024-03-08T11:44:24;21.39;;;21.22;;
66371;SDS011;53168;51.146;17.120;2024-03-08T11:47:02;19.99;;;19.70;;
66371;SDS011;53168;51.146;17.120;2024-03-08T11:49:42;19.42;;;19.15;;
66371;SDS011;53168;51.146;17.120;2024-03-08T11:52:27;18.63;;;18.41;;
66371;SDS011;53168;51.146;17.120;2024-03-08T11:55:03;19.01;;;18.69;;
66371;SDS011;53168;51.146;17.120;2024-03-08T11:57:39;22.21;;;21.87;;
66371;SDS011;53168;51.146;17.120;2024-03-08T12:00:16;20.25;;;20.15;;
66371;SDS011;53168;51.146;17.120;2024-03-08T12:03:02;21.82;;;21.64;;
66371;SDS011;53168;51.146;17.120;2024-03-08T12:05:41;20.42;;;20.11;;
66371;SDS011;53168;51.146;17.120;2024-03-08T12:08:31;21.11;;;20.88;;
66371;SDS011;53168;51.146;17.120;2024-03-08T12:11:11;19.05;;;18.87;;
66371;SDS011;53168;51.146;17.120;2024-03-08T12:14:10;21.21;;;20.95;;
66371;SDS011;53168;51.146;17.120;2024-03-08T12:16:53;20.23;;;20.15;;
66371;SDS011;53168;51.146;17.120;2024-03-08T12:20:30;19.19;;;19.06;;
66371;SDS011;53168;51.146;17.120;2024-03-08T12:23:17;19.62;;;19.43;;
66371;SDS011;53168;51.146;17.120;2024-03-08T12:26:13;20.44;;;20.42;;
66371;SDS011;53168;51.146;17.120;2024-03-08T12:29:29;20.38;;;20.29;;
66371;SDS011;53168;51.146;17.120;2024-03-08T12:32:08;21.25;;;21.08;;
66371;SDS011;53168;51.146;17.120;2024-03-08T12:34:59;21.44;;;21.31;;
66371;SDS011;53168;51.146;17.120;2024-03-08T12:37:45;21.30;;;21.16;;
66371;SDS011;53168;51.146;17.120;2024-03-08T12:40:28;18.49;;;18.45;;
66371;SDS011;53168;51.146;17.120;2024-03-08T12:43:17;20.41;;;20.12;;
66371;SDS011;53168;51.146;17.120;2024-03-08T12:46:12;20.67;;;20.51;;
66371;SDS011;53168;51.146;17.120;2024-03-08T12:49:04;16.80;;;16.74;;
66371;SDS011;53168;51.146;17.120;2024-03-08T12:51:48;19.14;;;19.12;;
66371;SDS011;53168;51.146;17.120;2024-03-08T12:57:55;18.67;;;18.63;;
66371;SDS011;53168;51.146;17.120;2024-03-08T13:01:03;17.82;;;17.55;;
66371;SDS011;53168;51.146;17.120;2024-03-08T13:04:13;17.77;;;17.60;;
66371;SDS011;53168;51.146;17.120;2024-03-08T13:06:58;16.53;;;16.47;;
66371;SDS011;53168;51.146;17.120;2024-03-08T13:09:38;18.80;;;18.67;;
66371;SDS011;53168;51.146;17.120;2024-03-08T13:12:32;18.46;;;18.43;;
66371;SDS011;53168;51.146;17.120;2024-03-08T13:15:16;18.66;;;18.64;;
66371;SDS011;53168;51.146;17.120;2024-03-08T13:17:57;17.80;;;17.63;;
66371;SDS011;53168;51.146;17.120;2024-03-08T13:20:38;19.50;;;19.36;;
66371;SDS011;53168;51.146;17.120;2024-03-08T13:23:21;19.24;;;19.24;;
66371;SDS011;53168;51.146;17.120;2024-03-08T13:26:25;17.80;;;17.79;;
66371;SDS011;53168;51.146;17.120;2024-03-08T13:29:41;20.52;;;20.39;;
66371;SDS011;53168;51.146;17.120;2024-03-08T13:32:22;19.71;;;19.61;;
66371;SDS011;53168;51.146;17.120;2024-03-08T13:34:57;20.39;;;20.20;;
66371;SDS011;53168;51.146;17.120;2024-03-08T13:37:42;19.67;;;19.60;;
66371;SDS011;53168;51.146;17.120;2024-03-08T13:40:17;20.08;;;20.01;;
66371;SDS011;53168;51.146;17.120;2024-03-08T13:42:54;18.82;;;18.78;;
66371;SDS011;53168;51.146;17.120;2024-03-08T13:45:31;18.54;;;18.52;;
66371;SDS011;53168;51.146;17.120;2024-03-08T13:48:18;21.02;;;20.93;;
66371;SDS011;53168;51.146;17.120;2024-03-08T13:51:06;20.58;;;20.38;;
66371;SDS011;53168;51.146;17.120;2024-03-08T13:53:52;20.21;;;20.18;;
66371;SDS011;53168;51.146;17.120;2024-03-08T13:56:30;22.14;;;22.09;;
66371;SDS011;53168;51.146;17.120;2024-03-08T13:59:05;18.99;;;18.97;;
66371;SDS011;53168;51.146;17.120;2024-03-08T14:05:26;21.77;;;21.68;;
66371;SDS011;53168;51.146;17.120;2024-03-08T14:08:22;19.71;;;19.60;;
66371;SDS011;53168;51.146;17.120;2024-03-08T14:14:36;21.48;;;21.42;;
66371;SDS011;53168;51.146;17.120;2024-03-08T14:17:44;20.77;;;20.71;;
66371;SDS011;53168;51.146;17.120;2024-03-08T14:21:21;20.05;;;19.97;;
66371;SDS011;53168;51.146;17.120;2024-03-08T14:24:17;20.09;;;20.06;;
66371;SDS011;53168;51.146;17.120;2024-03-08T14:27:36;21.40;;;21.22;;
66371;SDS011;53168;51.146;17.120;2024-03-08T14:34:59;19.03;;;18.99;;
66371;SDS011;53168;51.146;17.120;2024-03-08T14:38:15;22.02;;;21.59;;
66371;SDS011;53168;51.146;17.120;2024-03-08T14:41:33;23.34;;;23.26;;
66371;SDS011;53168;51.146;17.120;2024-03-08T14:45:09;20.45;;;20.30;;
66371;SDS011;53168;51.146;17.120;2024-03-08T14:47:54;22.22;;;22.02;;
66371;SDS011;53168;51.146;17.120;2024-03-08T14:50:50;20.74;;;20.51;;
66371;SDS011;53168;51.146;17.120;2024-03-08T14:53:29;20.62;;;20.49;;
66371;SDS011;53168;51.146;17.120;2024-03-08T15:00:20;21.22;;;21.09;;
66371;SDS011;53168;51.146;17.120;2024-03-08T15:03:56;22.29;;;22.14;;
66371;SDS011;53168;51.146;17.120;2024-03-08T15:06:55;22.23;;;22.13;;
66371;SDS011;53168;51.146;17.120;2024-03-08T15:09:50;23.08;;;22.99;;
66371;SDS011;53168;51.146;17.120;2024-03-08T15:16:38;22.37;;;22.12;;
66371;SDS011;53168;51.146;17.120;2024-03-08T15:19:51;22.06;;;21.81;;
66371;SDS011;53168;51.146;17.120;2024-03-08T15:23:22;22.97;;;22.71;;
66371;SDS011;53168;51.146;17.120;2024-03-08T15:26:27;21.45;;;21.33;;
66371;SDS011;53168;51.146;17.120;2024-03-08T15:30:08;23.46;;;23.04;;
66371;SDS011;53168;51.146;17.120;2024-03-08T15:33:52;23.40;;;23.15;;
66371;SDS011;53168;51.146;17.120;2024-03-08T15:37:13;23.48;;;23.19;;
66371;SDS011;53168;51.146;17.120;2024-03-08T16:01:44;25.11;;;24.24;;
66371;SDS011;53168;51.146;17.120;2024-03-08T16:18:40;25.62;;;24.91;;
66371;SDS011;53168;51.146;17.120;2024-03-08T16:21:15;23.66;;;23.25;;
66371;SDS011;53168;51.146;17.120;2024-03-08T16:23:49;25.14;;;24.68;;
66371;SDS011;53168;51.146;17.120;2024-03-08T16:27:02;25.30;;;24.81;;